TimeCDT,TemperatureF,Dew PointF,Humidity,Sea Level PressureIn,VisibilityMPH,Wind Direction,Wind SpeedMPH,Gust SpeedMPH,PrecipitationIn,Events,Conditions,WindDirDegrees,DateUTC
12:53 AM,45.0,42.1,90,30.25,10.0,Calm,Calm,-,N/A,,Overcast,0,2012-10-08 05:53:00
1:53 AM,44.1,41.0,89,30.24,10.0,Calm,Calm,-,N/A,,Partly Cloudy,0,2012-10-08 06:53:00
2:53 AM,39.0,37.0,93,30.24,10.0,Calm,Calm,-,N/A,,Mostly Cloudy,0,2012-10-08 07:53:00
3:53 AM,37.0,35.1,93,30.22,10.0,Calm,Calm,-,N/A,,Scattered Clouds,0,2012-10-08 08:53:00
4:53 AM,35.1,33.1,92,30.23,10.0,Calm,Calm,-,N/A,,Scattered Clouds,0,2012-10-08 09:53:00
5:53 AM,34.0,32.0,92,30.23,10.0,Calm,Calm,-,N/A,,Partly Cloudy,0,2012-10-08 10:53:00
6:53 AM,36.0,34.0,93,30.23,8.0,Calm,Calm,-,N/A,,Clear,0,2012-10-08 11:53:00
7:53 AM,36.0,34.0,93,30.25,7.0,Calm,Calm,-,N/A,,Clear,0,2012-10-08 12:53:00
8:53 AM,43.0,39.9,89,30.26,10.0,Calm,Calm,-,N/A,,Scattered Clouds,0,2012-10-08 13:53:00
9:53 AM,50.0,42.1,74,30.26,10.0,SSW,3.5,-,N/A,,Clear,200,2012-10-08 14:53:00
10:53 AM,54.0,33.1,45,30.25,10.0,SW,5.8,-,N/A,,Clear,230,2012-10-08 15:53:00
11:53 AM,57.0,33.1,40,30.23,10.0,Calm,Calm,-,N/A,,Clear,0,2012-10-08 16:53:00
12:53 PM,59.0,33.1,38,30.20,10.0,SSW,6.9,-,N/A,,Clear,210,2012-10-08 17:53:00
1:53 PM,60.1,32.0,35,30.17,10.0,Variable,3.5,-,N/A,,Partly Cloudy,0,2012-10-08 18:53:00
2:53 PM,63.0,33.1,33,30.13,10.0,Variable,4.6,-,N/A,,Clear,0,2012-10-08 19:53:00
3:53 PM,64.9,36.0,34,30.11,10.0,South,10.4,-,N/A,,Scattered Clouds,190,2012-10-08 20:53:00
4:53 PM,64.0,34.0,33,30.09,10.0,South,8.1,-,N/A,,Partly Cloudy,180,2012-10-08 21:53:00
5:53 PM,62.1,36.0,38,30.08,10.0,South,4.6,-,N/A,,Partly Cloudy,170,2012-10-08 22:53:00
6:53 PM,59.0,37.9,46,30.08,10.0,South,4.6,-,N/A,,Partly Cloudy,170,2012-10-08 23:53:00
7:53 PM,57.0,37.0,47,30.07,10.0,South,4.6,-,N/A,,Clear,170,2012-10-09 00:53:00
8:53 PM,55.9,37.0,49,30.07,10.0,SSE,4.6,-,N/A,,Clear,150,2012-10-09 01:53:00
9:53 PM,54.0,37.9,55,30.08,10.0,SSE,5.8,-,N/A,,Partly Cloudy,150,2012-10-09 02:53:00
10:53 PM,52.0,39.0,61,30.08,10.0,South,6.9,-,N/A,,Clear,180,2012-10-09 03:53:00
11:53 PM,52.0,39.9,63,30.08,10.0,South,5.8,-,N/A,,Scattered Clouds,180,2012-10-09 04:53:00